sensor_id;sensor_type;location;lat;lon;timestamp;pressure;altitude;pressure_sealevel;temperature;humidity
69035;BME280;56091;55.756;37.412;2023-05-22T00:01:37;99675.63;;;12.37;68.03
69035;BME280;56091;55.756;37.412;2023-05-22T00:06:46;99671.84;;;12.38;67.12
69035;BME280;56091;55.756;37.412;2023-05-22T00:11:48;99678.22;;;12.54;66.56
69035;BME280;56091;55.756;37.412;2023-05-22T00:16:49;99667.16;;;12.61;67.40
69035;BME280;56091;55.756;37.412;2023-05-22T00:21:50;99678.03;;;12.66;66.17
69035;BME280;56091;55.756;37.412;2023-05-22T00:26:51;99688.63;;;12.73;65.66
69035;BME280;56091;55.756;37.412;2023-05-22T00:31:52;99694.38;;;12.81;66.22
69035;BME280;56091;55.756;37.412;2023-05-22T00:36:55;99688.72;;;12.83;66.77
69035;BME280;56091;55.756;37.412;2023-05-22T00:41:56;99697.44;;;12.90;66.93
69035;BME280;56091;55.756;37.412;2023-05-22T00:46:56;99699.50;;;12.78;67.11
69035;BME280;56091;55.756;37.412;2023-05-22T00:51:58;99660.63;;;12.57;66.84
69035;BME280;56091;55.756;37.412;2023-05-22T00:56:59;99663.81;;;12.48;65.31
69035;BME280;56091;55.756;37.412;2023-05-22T01:02:04;99694.81;;;12.68;65.42
69035;BME280;56091;55.756;37.412;2023-05-22T01:07:05;99691.25;;;12.62;65.96
69035;BME280;56091;55.756;37.412;2023-05-22T01:17:44;99693.91;;;12.57;66.13
69035;BME280;56091;55.756;37.412;2023-05-22T01:23:14;99686.03;;;12.50;66.50
69035;BME280;56091;55.756;37.412;2023-05-22T01:33:36;99684.88;;;12.14;67.77
69035;BME280;56091;55.756;37.412;2023-05-22T01:38:41;99686.50;;;12.15;68.58
69035;BME280;56091;55.756;37.412;2023-05-22T01:43:45;99684.34;;;12.17;68.47
69035;BME280;56091;55.756;37.412;2023-05-22T01:48:46;99678.31;;;12.10;68.91
69035;BME280;56091;55.756;37.412;2023-05-22T01:54:00;99662.16;;;12.15;69.23
69035;BME280;56091;55.756;37.412;2023-05-22T02:04:42;99679.53;;;12.52;68.25
69035;BME280;56091;55.756;37.412;2023-05-22T02:09:45;99675.50;;;12.54;67.81
69035;BME280;56091;55.756;37.412;2023-05-22T02:14:47;99676.63;;;12.58;67.15
69035;BME280;56091;55.756;37.412;2023-05-22T02:19:48;99676.63;;;12.58;67.33
69035;BME280;56091;55.756;37.412;2023-05-22T02:24:49;99677.34;;;12.48;67.97
69035;BME280;56091;55.756;37.412;2023-05-22T02:29:51;99678.34;;;12.37;67.80
69035;BME280;56091;55.756;37.412;2023-05-22T02:34:52;99669.06;;;12.28;68.48
69035;BME280;56091;55.756;37.412;2023-05-22T02:39:53;99685.59;;;12.32;67.68
69035;BME280;56091;55.756;37.412;2023-05-22T02:44:54;99691.81;;;12.32;68.51
69035;BME280;56091;55.756;37.412;2023-05-22T02:49:54;99693.66;;;12.26;68.68
69035;BME280;56091;55.756;37.412;2023-05-22T02:54:57;99702.31;;;12.28;68.83
69035;BME280;56091;55.756;37.412;2023-05-22T02:59:58;99702.88;;;12.30;68.70
69035;BME280;56091;55.756;37.412;2023-05-22T03:04:59;99699.72;;;12.39;68.76
69035;BME280;56091;55.756;37.412;2023-05-22T03:10:00;99705.72;;;12.46;68.61
69035;BME280;56091;55.756;37.412;2023-05-22T03:15:01;99700.00;;;12.42;68.14
69035;BME280;56091;55.756;37.412;2023-05-22T03:20:05;99715.13;;;12.65;68.01
69035;BME280;56091;55.756;37.412;2023-05-22T03:25:10;99711.66;;;12.75;66.74
69035;BME280;56091;55.756;37.412;2023-05-22T03:30:12;99695.25;;;12.87;65.03
69035;BME280;56091;55.756;37.412;2023-05-22T03:35:16;99694.78;;;13.00;63.14
69035;BME280;56091;55.756;37.412;2023-05-22T03:40:19;99703.56;;;13.18;62.83
69035;BME280;56091;55.756;37.412;2023-05-22T03:45:22;99699.66;;;13.36;61.20
69035;BME280;56091;55.756;37.412;2023-05-22T03:50:24;99695.16;;;13.67;60.47
69035;BME280;56091;55.756;37.412;2023-05-22T03:55:25;99693.94;;;14.00;59.14
69035;BME280;56091;55.756;37.412;2023-05-22T04:00:26;99677.94;;;14.09;57.70
69035;BME280;56091;55.756;37.412;2023-05-22T04:05:29;99687.22;;;14.44;56.86
69035;BME280;56091;55.756;37.412;2023-05-22T04:10:31;99695.38;;;14.70;56.23
69035;BME280;56091;55.756;37.412;2023-05-22T04:15:32;99697.84;;;14.92;55.15
69035;BME280;56091;55.756;37.412;2023-05-22T04:20:40;99702.66;;;15.20;55.27
69035;BME280;56091;55.756;37.412;2023-05-22T04:25:42;99711.91;;;15.30;55.74
69035;BME280;56091;55.756;37.412;2023-05-22T04:30:44;99709.13;;;15.50;56.16
69035;BME280;56091;55.756;37.412;2023-05-22T04:35:45;99712.94;;;15.44;55.94
69035;BME280;56091;55.756;37.412;2023-05-22T04:40:45;99650.88;;;14.66;57.31
69035;BME280;56091;55.756;37.412;2023-05-22T04:45:48;99716.28;;;14.95;58.50
69035;BME280;56091;55.756;37.412;2023-05-22T04:50:51;99721.47;;;14.71;59.77
69035;BME280;56091;55.756;37.412;2023-05-22T04:55:54;99726.59;;;14.57;60.75
69035;BME280;56091;55.756;37.412;2023-05-22T05:00:56;99723.63;;;14.58;61.20
69035;BME280;56091;55.756;37.412;2023-05-22T05:06:00;99700.53;;;14.40;62.09
69035;BME280;56091;55.756;37.412;2023-05-22T05:11:01;99710.78;;;14.28;63.97
69035;BME280;56091;55.756;37.412;2023-05-22T05:16:02;99727.38;;;14.37;65.92
69035;BME280;56091;55.756;37.412;2023-05-22T05:21:05;99730.91;;;14.42;67.61
69035;BME280;56091;55.756;37.412;2023-05-22T05:26:09;99718.16;;;14.43;69.33
69035;BME280;56091;55.756;37.412;2023-05-22T05:31:10;99708.69;;;14.45;70.92
69035;BME280;56091;55.756;37.412;2023-05-22T05:36:43;99708.91;;;14.23;74.96
69035;BME280;56091;55.756;37.412;2023-05-22T05:41:44;99686.00;;;13.89;77.58
69035;BME280;56091;55.756;37.412;2023-05-22T05:46:45;99708.91;;;13.45;82.13
69035;BME280;56091;55.756;37.412;2023-05-22T05:51:51;99722.59;;;13.28;84.18
69035;BME280;56091;55.756;37.412;2023-05-22T05:56:55;99744.66;;;13.42;86.30
69035;BME280;56091;55.756;37.412;2023-05-22T06:01:56;99735.72;;;13.46;87.07
69035;BME280;56091;55.756;37.412;2023-05-22T06:07:01;99724.88;;;13.41;87.44
69035;BME280;56091;55.756;37.412;2023-05-22T06:12:15;99736.41;;;13.26;86.51
69035;BME280;56091;55.756;37.412;2023-05-22T06:17:18;99718.22;;;13.22;89.83
69035;BME280;56091;55.756;37.412;2023-05-22T06:22:19;99735.56;;;13.26;94.16
69035;BME280;56091;55.756;37.412;2023-05-22T06:27:23;99737.84;;;13.34;94.90
69035;BME280;56091;55.756;37.412;2023-05-22T06:32:31;99732.44;;;13.39;92.64
69035;BME280;56091;55.756;37.412;2023-05-22T06:37:32;99728.75;;;13.61;95.05
69035;BME280;56091;55.756;37.412;2023-05-22T06:42:35;99719.88;;;13.76;93.96
69035;BME280;56091;55.756;37.412;2023-05-22T06:47:54;99721.28;;;13.94;91.84
69035;BME280;56091;55.756;37.412;2023-05-22T06:52:56;99717.56;;;14.15;90.11
69035;BME280;56091;55.756;37.412;2023-05-22T06:57:57;99716.53;;;14.42;89.20
